sensor_id;sensor_type;location;lat;lon;timestamp;pressure;altitude;pressure_sealevel;temperature;humidity
46876;BME280;32866;50.160;14.768;2023-04-23T00:01:43;98796.09;;;9.33;100.00
46876;BME280;32866;50.160;14.768;2023-04-23T00:04:10;98741.13;;;8.96;100.00
46876;BME280;32866;50.160;14.768;2023-04-23T00:06:36;98782.38;;;9.23;100.00
46876;BME280;32866;50.160;14.768;2023-04-23T00:09:02;98782.28;;;9.14;100.00
46876;BME280;32866;50.160;14.768;2023-04-23T00:11:28;98796.69;;;9.15;100.00
46876;BME280;32866;50.160;14.768;2023-04-23T00:13:54;98778.91;;;9.10;100.00
46876;BME280;32866;50.160;14.768;2023-04-23T00:16:19;98750.13;;;8.83;100.00
46876;BME280;32866;50.160;14.768;2023-04-23T00:18:45;98785.94;;;8.98;100.00
46876;BME280;32866;50.160;14.768;2023-04-23T00:21:11;98782.31;;;9.01;100.00
46876;BME280;32866;50.160;14.768;2023-04-23T00:23:37;98765.19;;;8.88;100.00
46876;BME280;32866;50.160;14.768;2023-04-23T00:26:03;98735.56;;;8.51;100.00
46876;BME280;32866;50.160;14.768;2023-04-23T00:28:28;98745.94;;;8.57;100.00
46876;BME280;32866;50.160;14.768;2023-04-23T00:30:54;98746.75;;;8.66;100.00
46876;BME280;32866;50.160;14.768;2023-04-23T00:33:19;98740.84;;;8.68;100.00
46876;BME280;32866;50.160;14.768;2023-04-23T00:35:45;98744.88;;;8.76;100.00
46876;BME280;32866;50.160;14.768;2023-04-23T00:38:10;98759.22;;;9.15;100.00
46876;BME280;32866;50.160;14.768;2023-04-23T00:40:35;98761.13;;;8.93;100.00
46876;BME280;32866;50.160;14.768;2023-04-23T00:43:01;98755.41;;;9.00;100.00
46876;BME280;32866;50.160;14.768;2023-04-23T00:45:27;98748.34;;;8.89;100.00
46876;BME280;32866;50.160;14.768;2023-04-23T00:47:52;98761.13;;;9.27;100.00
46876;BME280;32866;50.160;14.768;2023-04-23T00:50:18;98755.78;;;9.24;100.00
46876;BME280;32866;50.160;14.768;2023-04-23T00:52:43;98737.50;;;8.99;100.00
46876;BME280;32866;50.160;14.768;2023-04-23T00:55:08;98769.91;;;9.22;100.00
46876;BME280;32866;50.160;14.768;2023-04-23T00:57:35;98728.66;;;8.95;100.00
46876;BME280;32866;50.160;14.768;2023-04-23T01:00:01;98756.38;;;9.06;100.00
46876;BME280;32866;50.160;14.768;2023-04-23T01:02:28;98750.53;;;8.95;100.00
46876;BME280;32866;50.160;14.768;2023-04-23T01:04:55;98736.25;;;8.78;100.00
46876;BME280;32866;50.160;14.768;2023-04-23T01:07:22;98737.91;;;8.75;100.00
46876;BME280;32866;50.160;14.768;2023-04-23T01:09:49;98762.25;;;8.82;100.00
46876;BME280;32866;50.160;14.768;2023-04-23T01:12:15;98764.44;;;8.87;100.00
46876;BME280;32866;50.160;14.768;2023-04-23T01:14:42;98766.59;;;8.93;100.00
46876;BME280;32866;50.160;14.768;2023-04-23T01:17:07;98768.06;;;9.06;100.00
46876;BME280;32866;50.160;14.768;2023-04-23T01:19:34;98730.78;;;8.78;100.00
46876;BME280;32866;50.160;14.768;2023-04-23T01:22:00;98762.56;;;8.84;100.00
46876;BME280;32866;50.160;14.768;2023-04-23T01:24:26;98753.06;;;8.89;100.00
46876;BME280;32866;50.160;14.768;2023-04-23T01:26:53;98762.72;;;8.68;100.00
46876;BME280;32866;50.160;14.768;2023-04-23T01:29:20;98747.78;;;8.60;100.00
46876;BME280;32866;50.160;14.768;2023-04-23T01:31:46;98749.72;;;8.72;100.00
46876;BME280;32866;50.160;14.768;2023-04-23T01:34:12;98710.63;;;8.49;100.00
46876;BME280;32866;50.160;14.768;2023-04-23T01:36:39;98733.97;;;8.76;100.00
46876;BME280;32866;50.160;14.768;2023-04-23T01:39:05;98752.69;;;9.00;100.00
46876;BME280;32866;50.160;14.768;2023-04-23T01:41:31;98742.50;;;8.78;100.00
46876;BME280;32866;50.160;14.768;2023-04-23T01:43:57;98767.41;;;8.80;100.00
46876;BME280;32866;50.160;14.768;2023-04-23T01:46:23;98758.47;;;8.67;100.00
46876;BME280;32866;50.160;14.768;2023-04-23T01:48:48;98764.38;;;8.65;100.00
46876;BME280;32866;50.160;14.768;2023-04-23T01:51:13;98718.28;;;8.29;100.00
46876;BME280;32866;50.160;14.768;2023-04-23T01:53:39;98752.69;;;8.52;100.00
46876;BME280;32866;50.160;14.768;2023-04-23T01:56:05;98737.84;;;8.40;100.00
46876;BME280;32866;50.160;14.768;2023-04-23T01:58:33;98751.59;;;8.49;100.00
46876;BME280;32866;50.160;14.768;2023-04-23T02:00:59;98734.34;;;8.27;100.00
46876;BME280;32866;50.160;14.768;2023-04-23T02:03:24;98747.53;;;8.41;100.00
46876;BME280;32866;50.160;14.768;2023-04-23T02:05:51;98740.13;;;8.29;100.00
46876;BME280;32866;50.160;14.768;2023-04-23T02:08:17;98757.19;;;8.33;100.00
46876;BME280;32866;50.160;14.768;2023-04-23T02:10:43;98746.78;;;8.28;100.00
46876;BME280;32866;50.160;14.768;2023-04-23T02:13:08;98749.06;;;8.42;100.00
46876;BME280;32866;50.160;14.768;2023-04-23T02:15:34;98738.16;;;8.16;100.00
46876;BME280;32866;50.160;14.768;2023-04-23T02:17:59;98740.13;;;8.29;100.00
46876;BME280;32866;50.160;14.768;2023-04-23T02:20:25;98734.03;;;8.25;100.00
46876;BME280;32866;50.160;14.768;2023-04-23T02:22:50;98730.06;;;8.26;100.00
46876;BME280;32866;50.160;14.768;2023-04-23T02:25:17;98738.94;;;8.30;100.00
46876;BME280;32866;50.160;14.768;2023-04-23T02:27:43;98760.69;;;8.46;100.00
46876;BME280;32866;50.160;14.768;2023-04-23T02:30:09;98757.69;;;8.41;100.00
46876;BME280;32866;50.160;14.768;2023-04-23T02:32:35;98753.56;;;8.23;100.00
46876;BME280;32866;50.160;14.768;2023-04-23T02:35:01;98747.66;;;8.38;100.00
46876;BME280;32866;50.160;14.768;2023-04-23T02:37:27;98728.88;;;8.14;100.00
46876;BME280;32866;50.160;14.768;2023-04-23T02:39:53;98736.41;;;8.23;100.00
46876;BME280;32866;50.160;14.768;2023-04-23T02:42:18;98740.34;;;8.22;100.00
46876;BME280;32866;50.160;14.768;2023-04-23T02:44:43;98761.31;;;8.25;100.00
46876;BME280;32866;50.160;14.768;2023-04-23T02:47:09;98728.44;;;8.03;100.00
46876;BME280;32866;50.160;14.768;2023-04-23T02:49:34;98741.09;;;8.09;100.00
46876;BME280;32866;50.160;14.768;2023-04-23T02:52:00;98754.31;;;8.49;100.00
46876;BME280;32866;50.160;14.768;2023-04-23T02:54:26;98735.66;;;8.09;100.00
46876;BME280;32866;50.160;14.768;2023-04-23T02:56:51;98740.78;;;8.07;100.00
46876;BME280;32866;50.160;14.768;2023-04-23T02:59:17;98759.59;;;8.57;100.00
46876;BME280;32866;50.160;14.768;2023-04-23T03:01:42;98765.69;;;8.61;100.00
46876;BME280;32866;50.160;14.768;2023-04-23T03:04:07;98751.41;;;8.44;100.00
46876;BME280;32866;50.160;14.768;2023-04-23T03:06:34;98763.06;;;8.70;100.00
46876;BME280;32866;50.160;14.768;2023-04-23T03:09:00;98723.22;;;8.47;100.00
46876;BME280;32866;50.160;14.768;2023-04-23T03:11:26;98757.59;;;8.70;100.00
46876;BME280;32866;50.160;14.768;2023-04-23T03:13:51;98739.66;;;8.69;100.00
46876;BME280;32866;50.160;14.768;2023-04-23T03:16:16;98748.41;;;8.64;100.00
46876;BME280;32866;50.160;14.768;2023-04-23T03:18:42;98767.72;;;8.82;100.00
46876;BME280;32866;50.160;14.768;2023-04-23T03:21:07;98744.16;;;8.63;100.00
46876;BME280;32866;50.160;14.768;2023-04-23T03:23:32;98772.09;;;8.80;100.00
46876;BME280;32866;50.160;14.768;2023-04-23T03:25:58;98755.63;;;8.58;100.00
46876;BME280;32866;50.160;14.768;2023-04-23T03:28:23;98737.72;;;8.57;100.00
46876;BME280;32866;50.160;14.768;2023-04-23T03:30:49;98746.38;;;8.55;100.00
46876;BME280;32866;50.160;14.768;2023-04-23T03:33:14;98756.94;;;8.66;100.00
46876;BME280;32866;50.160;14.768;2023-04-23T03:35:40;98747.97;;;8.65;100.00
46876;BME280;32866;50.160;14.768;2023-04-23T03:38:05;98736.44;;;8.48;100.00
46876;BME280;32866;50.160;14.768;2023-04-23T03:40:31;98735.00;;;8.44;100.00
46876;BME280;32866;50.160;14.768;2023-04-23T03:42:57;98732.81;;;8.51;100.00
46876;BME280;32866;50.160;14.768;2023-04-23T03:45:22;98732.25;;;8.31;100.00
46876;BME280;32866;50.160;14.768;2023-04-23T03:47:47;98753.44;;;8.52;100.00
46876;BME280;32866;50.160;14.768;2023-04-23T03:50:13;98718.28;;;8.29;100.00
46876;BME280;32866;50.160;14.768;2023-04-23T03:52:38;98769.41;;;8.54;100.00
46876;BME280;32866;50.160;14.768;2023-04-23T03:55:04;98760.13;;;8.51;100.00
46876;BME280;32866;50.160;14.768;2023-04-23T03:57:29;98734.00;;;8.38;100.00
46876;BME280;32866;50.160;14.768;2023-04-23T03:59:55;98768.72;;;8.63;100.00
46876;BME280;32866;50.160;14.768;2023-04-23T04:02:21;98779.19;;;8.90;100.00
46876;BME280;32866;50.160;14.768;2023-04-23T04:04:46;98767.84;;;8.66;100.00
46876;BME280;32866;50.160;14.768;2023-04-23T04:07:14;98748.84;;;8.75;100.00
46876;BME280;32866;50.160;14.768;2023-04-23T04:09:39;98763.94;;;8.67;100.00
46876;BME280;32866;50.160;14.768;2023-04-23T04:12:05;98735.09;;;8.40;100.00
46876;BME280;32866;50.160;14.768;2023-04-23T04:14:31;98764.00;;;8.89;100.00
46876;BME280;32866;50.160;14.768;2023-04-23T04:16:57;98748.19;;;8.71;100.00
46876;BME280;32866;50.160;14.768;2023-04-23T04:19:24;98729.28;;;8.77;100.00
46876;BME280;32866;50.160;14.768;2023-04-23T04:21:49;98722.28;;;8.76;100.00
46876;BME280;32866;50.160;14.768;2023-04-23T04:24:17;98746.13;;;9.10;100.00
46876;BME280;32866;50.160;14.768;2023-04-23T04:26:43;98743.13;;;8.82;100.00
46876;BME280;32866;50.160;14.768;2023-04-23T04:29:09;98751.66;;;8.84;100.00
46876;BME280;32866;50.160;14.768;2023-04-23T04:31:35;98737.84;;;8.88;100.00
46876;BME280;32866;50.160;14.768;2023-04-23T04:34:01;98737.69;;;9.04;100.00
46876;BME280;32866;50.160;14.768;2023-04-23T04:36:27;98748.88;;;8.97;100.00
46876;BME280;32866;50.160;14.768;2023-04-23T04:38:53;98737.63;;;9.30;100.00
46876;BME280;32866;50.160;14.768;2023-04-23T04:41:23;98721.69;;;9.16;100.00
46876;BME280;32866;50.160;14.768;2023-04-23T04:43:50;98711.78;;;9.09;100.00
46876;BME280;32866;50.160;14.768;2023-04-23T04:46:15;98740.72;;;9.19;100.00
46876;BME280;32866;50.160;14.768;2023-04-23T04:48:44;98707.59;;;8.95;100.00
46876;BME280;32866;50.160;14.768;2023-04-23T04:51:09;98732.31;;;9.14;100.00
46876;BME280;32866;50.160;14.768;2023-04-23T04:53:34;98725.25;;;9.03;100.00
46876;BME280;32866;50.160;14.768;2023-04-23T04:56:00;98732.06;;;9.43;100.00
46876;BME280;32866;50.160;14.768;2023-04-23T04:58:25;98724.63;;;9.43;100.00
46876;BME280;32866;50.160;14.768;2023-04-23T05:00:51;98732.38;;;9.45;100.00
46876;BME280;32866;50.160;14.768;2023-04-23T05:03:17;98714.31;;;9.47;100.00
46876;BME280;32866;50.160;14.768;2023-04-23T05:05:43;98729.97;;;9.47;100.00
46876;BME280;32866;50.160;14.768;2023-04-23T05:08:09;98746.16;;;9.63;100.00
46876;BME280;32866;50.160;14.768;2023-04-23T05:10:34;98716.94;;;9.51;100.00
46876;BME280;32866;50.160;14.768;2023-04-23T05:13:00;98719.47;;;9.68;100.00
46876;BME280;32866;50.160;14.768;2023-04-23T05:15:25;98714.19;;;9.51;100.00
46876;BME280;32866;50.160;14.768;2023-04-23T05:17:52;98752.22;;;9.80;100.00
46876;BME280;32866;50.160;14.768;2023-04-23T05:20:19;98759.66;;;10.11;100.00
46876;BME280;32866;50.160;14.768;2023-04-23T05:22:45;98752.38;;;10.17;100.00
46876;BME280;32866;50.160;14.768;2023-04-23T05:25:12;98731.91;;;10.00;100.00
46876;BME280;32866;50.160;14.768;2023-04-23T05:27:38;98735.38;;;9.91;100.00
46876;BME280;32866;50.160;14.768;2023-04-23T05:30:04;98747.91;;;10.33;100.00
46876;BME280;32866;50.160;14.768;2023-04-23T05:32:30;98723.53;;;9.94;100.00
46876;BME280;32866;50.160;14.768;2023-04-23T05:34:55;98760.97;;;9.97;100.00
46876;BME280;32866;50.160;14.768;2023-04-23T05:37:21;98778.84;;;10.20;100.00
46876;BME280;32866;50.160;14.768;2023-04-23T05:39:47;98780.00;;;10.32;100.00
46876;BME280;32866;50.160;14.768;2023-04-23T05:42:12;98781.97;;;10.32;100.00
46876;BME280;32866;50.160;14.768;2023-04-23T05:44:37;98776.34;;;10.35;100.00
46876;BME280;32866;50.160;14.768;2023-04-23T05:47:03;98788.00;;;10.67;100.00
46876;BME280;32866;50.160;14.768;2023-04-23T05:49:29;98804.38;;;10.89;100.00
46876;BME280;32866;50.160;14.768;2023-04-23T05:51:54;98775.72;;;10.81;100.00
46876;BME280;32866;50.160;14.768;2023-04-23T05:54:20;98795.31;;;10.61;100.00
46876;BME280;32866;50.160;14.768;2023-04-23T05:56:45;98750.59;;;10.64;100.00
46876;BME280;32866;50.160;14.768;2023-04-23T05:59:11;98773.59;;;10.85;100.00
46876;BME280;32866;50.160;14.768;2023-04-23T06:01:36;98788.09;;;11.04;100.00
46876;BME280;32866;50.160;14.768;2023-04-23T06:04:02;98789.03;;;11.20;100.00
46876;BME280;32866;50.160;14.768;2023-04-23T06:06:28;98766.78;;;11.08;100.00
46876;BME280;32866;50.160;14.768;2023-04-23T06:08:53;98774.22;;;11.54;100.00
46876;BME280;32866;50.160;14.768;2023-04-23T06:11:19;98782.75;;;11.65;100.00
46876;BME280;32866;50.160;14.768;2023-04-23T06:13:45;98781.97;;;11.93;100.00
46876;BME280;32866;50.160;14.768;2023-04-23T06:16:11;98792.56;;;12.18;100.00
46876;BME280;32866;50.160;14.768;2023-04-23T06:18:36;98781.38;;;12.31;100.00
46876;BME280;32866;50.160;14.768;2023-04-23T06:21:03;98799.16;;;12.45;100.00
46876;BME280;32866;50.160;14.768;2023-04-23T06:23:29;98774.59;;;12.08;100.00
46876;BME280;32866;50.160;14.768;2023-04-23T06:25:55;98795.19;;;12.46;100.00
46876;BME280;32866;50.160;14.768;2023-04-23T06:28:20;98779.97;;;12.36;100.00
46876;BME280;32866;50.160;14.768;2023-04-23T06:30:46;98792.06;;;12.62;100.00
46876;BME280;32866;50.160;14.768;2023-04-23T06:33:11;98784.41;;;12.67;100.00
46876;BME280;32866;50.160;14.768;2023-04-23T06:35:37;98786.81;;;12.74;100.00
46876;BME280;32866;50.160;14.768;2023-04-23T06:38:02;98775.59;;;13.11;100.00
46876;BME280;32866;50.160;14.768;2023-04-23T06:40:28;98753.28;;;13.09;100.00
46876;BME280;32866;50.160;14.768;2023-04-23T06:42:53;98773.31;;;13.48;100.00
46876;BME280;32866;50.160;14.768;2023-04-23T06:45:19;98780.25;;;13.88;100.00
46876;BME280;32866;50.160;14.768;2023-04-23T06:47:45;98780.66;;;13.66;100.00
46876;BME280;32866;50.160;14.768;2023-04-23T06:52:45;98749.00;;;14.06;100.00
46876;BME280;32866;50.160;14.768;2023-04-23T06:55:11;98781.19;;;14.15;100.00
46876;BME280;32866;50.160;14.768;2023-04-23T06:57:36;98786.91;;;13.97;100.00
46876;BME280;32866;50.160;14.768;2023-04-23T07:00:02;98782.00;;;13.86;100.00
46876;BME280;32866;50.160;14.768;2023-04-23T07:02:29;98768.88;;;13.51;100.00
46876;BME280;32866;50.160;14.768;2023-04-23T07:04:55;98764.50;;;13.59;100.00
46876;BME280;32866;50.160;14.768;2023-04-23T07:07:20;98773.63;;;13.80;100.00
46876;BME280;32866;50.160;14.768;2023-04-23T07:09:46;98780.66;;;13.96;100.00
46876;BME280;32866;50.160;14.768;2023-04-23T07:12:11;98745.63;;;13.82;100.00
46876;BME280;32866;50.160;14.768;2023-04-23T07:14:36;98786.28;;;14.37;100.00
46876;BME280;32866;50.160;14.768;2023-04-23T07:17:02;98778.47;;;14.65;100.00
46876;BME280;32866;50.160;14.768;2023-04-23T07:19:27;98760.81;;;14.78;100.00
46876;BME280;32866;50.160;14.768;2023-04-23T07:21:52;98775.22;;;15.08;100.00
46876;BME280;32866;50.160;14.768;2023-04-23T07:24:18;98776.06;;;15.14;100.00
46876;BME280;32866;50.160;14.768;2023-04-23T07:26:44;98784.34;;;15.14;100.00
46876;BME280;32866;50.160;14.768;2023-04-23T07:29:09;98753.69;;;14.71;100.00
46876;BME280;32866;50.160;14.768;2023-04-23T07:31:35;98771.31;;;14.94;100.00
46876;BME280;32866;50.160;14.768;2023-04-23T07:34:01;98775.16;;;15.02;100.00
46876;BME280;32866;50.160;14.768;2023-04-23T07:36:27;98746.00;;;14.96;100.00
46876;BME280;32866;50.160;14.768;2023-04-23T07:38:53;98778.13;;;15.40;100.00
46876;BME280;32866;50.160;14.768;2023-04-23T07:41:18;98773.78;;;15.33;100.00
46876;BME280;32866;50.160;14.768;2023-04-23T07:43:44;98762.22;;;15.55;100.00
46876;BME280;32866;50.160;14.768;2023-04-23T07:46:10;98769.13;;;15.98;100.00
46876;BME280;32866;50.160;14.768;2023-04-23T07:48:35;98765.97;;;16.10;100.00
46876;BME280;32866;50.160;14.768;2023-04-23T07:51:01;98782.25;;;16.78;100.00
46876;BME280;32866;50.160;14.768;2023-04-23T07:53:27;98779.53;;;17.66;100.00
46876;BME280;32866;50.160;14.768;2023-04-23T07:55:55;98773.25;;;17.83;100.00
46876;BME280;32866;50.160;14.768;2023-04-23T07:58:22;98750.78;;;17.35;100.00
46876;BME280;32866;50.160;14.768;2023-04-23T08:00:47;98779.91;;;17.14;100.00
46876;BME280;32866;50.160;14.768;2023-04-23T08:03:12;98768.31;;;17.10;100.00
46876;BME280;32866;50.160;14.768;2023-04-23T08:05:38;98741.69;;;17.29;100.00
46876;BME280;32866;50.160;14.768;2023-04-23T08:08:05;98742.41;;;18.77;100.00
46876;BME280;32866;50.160;14.768;2023-04-23T08:10:30;98770.72;;;19.75;100.00
46876;BME280;32866;50.160;14.768;2023-04-23T08:12:56;98755.59;;;20.56;100.00
46876;BME280;32866;50.160;14.768;2023-04-23T08:15:21;98780.69;;;19.95;100.00
46876;BME280;32866;50.160;14.768;2023-04-23T08:17:46;98782.75;;;19.42;100.00
46876;BME280;32866;50.160;14.768;2023-04-23T08:20:12;98777.16;;;19.00;100.00
46876;BME280;32866;50.160;14.768;2023-04-23T08:22:37;98766.44;;;18.46;100.00
46876;BME280;32866;50.160;14.768;2023-04-23T08:25:02;98787.91;;;18.23;100.00
46876;BME280;32866;50.160;14.768;2023-04-23T08:27:29;98782.81;;;17.76;100.00
46876;BME280;32866;50.160;14.768;2023-04-23T08:29:54;98783.31;;;17.63;100.00
46876;BME280;32866;50.160;14.768;2023-04-23T08:32:20;98773.25;;;17.77;100.00
46876;BME280;32866;50.160;14.768;2023-04-23T08:34:45;98787.34;;;17.85;100.00
46876;BME280;32866;50.160;14.768;2023-04-23T08:37:10;98769.31;;;17.06;100.00
46876;BME280;32866;50.160;14.768;2023-04-23T08:39:35;98793.97;;;17.04;100.00
46876;BME280;32866;50.160;14.768;2023-04-23T08:42:08;98784.50;;;17.28;100.00
46876;BME280;32866;50.160;14.768;2023-04-23T08:44:37;98771.63;;;16.70;100.00
46876;BME280;32866;50.160;14.768;2023-04-23T08:47:06;98791.41;;;16.95;100.00
46876;BME280;32866;50.160;14.768;2023-04-23T08:49:36;98765.75;;;17.00;100.00
46876;BME280;32866;50.160;14.768;2023-04-23T08:52:16;98778.41;;;17.13;100.00
46876;BME280;32866;50.160;14.768;2023-04-23T08:54:45;98787.50;;;17.30;100.00
46876;BME280;32866;50.160;14.768;2023-04-23T08:57:13;98778.84;;;17.05;100.00
46876;BME280;32866;50.160;14.768;2023-04-23T08:59:40;98783.09;;;16.95;100.00
46876;BME280;32866;50.160;14.768;2023-04-23T09:02:06;98779.53;;;16.89;100.00
46876;BME280;32866;50.160;14.768;2023-04-23T09:04:34;98792.31;;;16.81;100.00
46876;BME280;32866;50.160;14.768;2023-04-23T09:07:00;98781.94;;;16.76;100.00
46876;BME280;32866;50.160;14.768;2023-04-23T09:09:25;98800.53;;;17.13;100.00
46876;BME280;32866;50.160;14.768;2023-04-23T09:11:52;98792.34;;;17.52;100.00
46876;BME280;32866;50.160;14.768;2023-04-23T09:14:17;98799.25;;;18.02;100.00
46876;BME280;32866;50.160;14.768;2023-04-23T09:16:43;98794.19;;;18.46;100.00
46876;BME280;32866;50.160;14.768;2023-04-23T09:19:10;98797.75;;;19.27;100.00
46876;BME280;32866;50.160;14.768;2023-04-23T09:21:36;98784.88;;;20.08;100.00
46876;BME280;32866;50.160;14.768;2023-04-23T09:24:08;98793.34;;;20.51;100.00
46876;BME280;32866;50.160;14.768;2023-04-23T09:26:43;98774.69;;;20.16;100.00
46876;BME280;32866;50.160;14.768;2023-04-23T09:29:16;98798.53;;;20.06;100.00
46876;BME280;32866;50.160;14.768;2023-04-23T09:31:47;98802.59;;;20.05;100.00
46876;BME280;32866;50.160;14.768;2023-04-23T09:34:17;98766.03;;;19.95;100.00
46876;BME280;32866;50.160;14.768;2023-04-23T09:36:44;98794.13;;;19.91;100.00
46876;BME280;32866;50.160;14.768;2023-04-23T09:39:11;98766.84;;;19.90;100.00
46876;BME280;32866;50.160;14.768;2023-04-23T09:41:37;98771.94;;;19.80;100.00
46876;BME280;32866;50.160;14.768;2023-04-23T09:44:03;98793.31;;;19.96;100.00
46876;BME280;32866;50.160;14.768;2023-04-23T09:46:38;98778.53;;;19.77;100.00
46876;BME280;32866;50.160;14.768;2023-04-23T09:49:05;98795.25;;;20.07;100.00
46876;BME280;32866;50.160;14.768;2023-04-23T09:51:42;98809.72;;;20.30;100.00
46876;BME280;32866;50.160;14.768;2023-04-23T09:54:13;98795.13;;;19.46;100.00
46876;BME280;32866;50.160;14.768;2023-04-23T09:56:40;98776.84;;;19.15;100.00
46876;BME280;32866;50.160;14.768;2023-04-23T09:59:22;98795.44;;;19.32;100.00
46876;BME280;32866;50.160;14.768;2023-04-23T10:01:48;98799.06;;;19.15;100.00
46876;BME280;32866;50.160;14.768;2023-04-23T10:04:16;98802.09;;;19.17;100.00
46876;BME280;32866;50.160;14.768;2023-04-23T10:06:42;98777.94;;;19.01;100.00
46876;BME280;32866;50.160;14.768;2023-04-23T10:09:08;98804.47;;;19.49;100.00
46876;BME280;32866;50.160;14.768;2023-04-23T10:11:34;98814.59;;;19.41;100.00
46876;BME280;32866;50.160;14.768;2023-04-23T10:13:59;98800.53;;;19.27;100.00
46876;BME280;32866;50.160;14.768;2023-04-23T10:16:25;98753.19;;;19.03;100.00
46876;BME280;32866;50.160;14.768;2023-04-23T10:18:50;98800.75;;;19.30;100.00
46876;BME280;32866;50.160;14.768;2023-04-23T10:21:18;98788.50;;;19.08;100.00
46876;BME280;32866;50.160;14.768;2023-04-23T10:23:46;98794.13;;;18.85;100.00
46876;BME280;32866;50.160;14.768;2023-04-23T10:26:14;98805.00;;;18.61;100.00
46876;BME280;32866;50.160;14.768;2023-04-23T10:28:44;98816.63;;;18.48;100.00
46876;BME280;32866;50.160;14.768;2023-04-23T10:31:11;98777.81;;;18.14;100.00
46876;BME280;32866;50.160;14.768;2023-04-23T10:33:36;98803.53;;;18.09;100.00
46876;BME280;32866;50.160;14.768;2023-04-23T10:36:02;98772.50;;;17.76;100.00
46876;BME280;32866;50.160;14.768;2023-04-23T10:38:27;98810.06;;;17.94;100.00
46876;BME280;32866;50.160;14.768;2023-04-23T10:40:54;98812.84;;;17.89;100.00
46876;BME280;32866;50.160;14.768;2023-04-23T10:43:20;98812.09;;;17.88;100.00
46876;BME280;32866;50.160;14.768;2023-04-23T10:45:46;98812.84;;;17.89;100.00
46876;BME280;32866;50.160;14.768;2023-04-23T10:48:13;98799.44;;;17.70;100.00
46876;BME280;32866;50.160;14.768;2023-04-23T10:50:39;98818.91;;;18.04;100.00
46876;BME280;32866;50.160;14.768;2023-04-23T10:53:17;98816.59;;;17.80;100.00
46876;BME280;32866;50.160;14.768;2023-04-23T10:55:43;98802.91;;;17.48;100.00
46876;BME280;32866;50.160;14.768;2023-04-23T10:58:08;98818.09;;;17.70;100.00
46876;BME280;32866;50.160;14.768;2023-04-23T11:00:44;98818.09;;;17.70;100.00
46876;BME280;32866;50.160;14.768;2023-04-23T11:06:01;98813.97;;;17.42;100.00
46876;BME280;32866;50.160;14.768;2023-04-23T11:08:28;98788.03;;;17.46;100.00
46876;BME280;32866;50.160;14.768;2023-04-23T11:10:59;98814.31;;;17.78;100.00
46876;BME280;32866;50.160;14.768;2023-04-23T11:13:26;98816.06;;;17.76;100.00
46876;BME280;32866;50.160;14.768;2023-04-23T11:16:21;98811.34;;;17.93;100.00
46876;BME280;32866;50.160;14.768;2023-04-23T11:24:48;98794.66;;;17.76;100.00
46876;BME280;32866;50.160;14.768;2023-04-23T11:27:14;98807.31;;;17.89;100.00
46876;BME280;32866;50.160;14.768;2023-04-23T11:29:41;98807.56;;;17.96;100.00
46876;BME280;32866;50.160;14.768;2023-04-23T11:32:08;98806.47;;;17.71;100.00
46876;BME280;32866;50.160;14.768;2023-04-23T11:34:42;98809.94;;;17.43;100.00
46876;BME280;32866;50.160;14.768;2023-04-23T11:37:12;98804.13;;;17.36;100.00
46876;BME280;32866;50.160;14.768;2023-04-23T11:39:38;98778.81;;;16.94;100.00
46876;BME280;32866;50.160;14.768;2023-04-23T11:42:14;98799.47;;;16.99;100.00
46876;BME280;32866;50.160;14.768;2023-04-23T11:44:41;98799.91;;;16.86;100.00
46876;BME280;32866;50.160;14.768;2023-04-23T11:47:08;98804.50;;;17.00;100.00
46876;BME280;32866;50.160;14.768;2023-04-23T11:49:38;98793.75;;;16.70;100.00
46876;BME280;32866;50.160;14.768;2023-04-23T11:52:04;98777.03;;;16.48;100.00
46876;BME280;32866;50.160;14.768;2023-04-23T11:54:30;98797.97;;;16.60;100.00
46876;BME280;32866;50.160;14.768;2023-04-23T11:56:55;98794.22;;;16.63;100.00
46876;BME280;32866;50.160;14.768;2023-04-23T11:59:22;98795.13;;;16.86;100.00
46876;BME280;32866;50.160;14.768;2023-04-23T12:01:50;98792.38;;;16.92;100.00
46876;BME280;32866;50.160;14.768;2023-04-23T12:04:21;98787.91;;;17.00;100.00
46876;BME280;32866;50.160;14.768;2023-04-23T12:06:48;98792.25;;;17.18;100.00
46876;BME280;32866;50.160;14.768;2023-04-23T12:09:15;98788.75;;;17.29;100.00
46876;BME280;32866;50.160;14.768;2023-04-23T12:11:41;98786.41;;;16.99;100.00
46876;BME280;32866;50.160;14.768;2023-04-23T12:14:08;98795.00;;;16.69;100.00
46876;BME280;32866;50.160;14.768;2023-04-23T12:16:35;98816.41;;;16.75;100.00
46876;BME280;32866;50.160;14.768;2023-04-23T12:19:01;98825.69;;;16.66;100.00
46876;BME280;32866;50.160;14.768;2023-04-23T12:21:27;98827.09;;;16.56;100.00
46876;BME280;32866;50.160;14.768;2023-04-23T12:23:55;98828.66;;;16.62;100.00
46876;BME280;32866;50.160;14.768;2023-04-23T12:26:24;98829.31;;;16.46;100.00
46876;BME280;32866;50.160;14.768;2023-04-23T12:28:51;98823.22;;;16.42;100.00
46876;BME280;32866;50.160;14.768;2023-04-23T12:31:25;98829.34;;;16.20;100.00
46876;BME280;32866;50.160;14.768;2023-04-23T12:34:08;98824.47;;;15.77;100.00
46876;BME280;32866;50.160;14.768;2023-04-23T12:36:35;98792.59;;;15.35;100.00
46876;BME280;32866;50.160;14.768;2023-04-23T12:39:26;98817.44;;;15.55;100.00
46876;BME280;32866;50.160;14.768;2023-04-23T12:41:55;98825.31;;;15.42;100.00
46876;BME280;32866;50.160;14.768;2023-04-23T12:44:22;98814.06;;;15.46;100.00
46876;BME280;32866;50.160;14.768;2023-04-23T12:47:00;98817.53;;;15.67;100.00
46876;BME280;32866;50.160;14.768;2023-04-23T12:49:28;98815.34;;;15.97;100.00
46876;BME280;32866;50.160;14.768;2023-04-23T12:51:54;98781.38;;;15.91;100.00
46876;BME280;32866;50.160;14.768;2023-04-23T12:54:26;98814.72;;;16.13;100.00